sensor_id;sensor_type;location;lat;lon;timestamp;P1;durP1;ratioP1;P2;durP2;ratioP2
77864;SDS011;67061;48.524;9.040;2024-02-26T00:00:09;7.78;;;4.45;;
77864;SDS011;67061;48.524;9.040;2024-02-26T00:02:37;8.85;;;4.13;;
77864;SDS011;67061;48.524;9.040;2024-02-26T00:05:05;7.85;;;4.57;;
77864;SDS011;67061;48.524;9.040;2024-02-26T00:07:33;6.75;;;4.18;;
77864;SDS011;67061;48.524;9.040;2024-02-26T00:10:00;7.55;;;4.45;;
77864;SDS011;67061;48.524;9.040;2024-02-26T00:12:27;6.50;;;4.07;;
77864;SDS011;67061;48.524;9.040;2024-02-26T00:14:54;7.20;;;3.80;;
77864;SDS011;67061;48.524;9.040;2024-02-26T00:17:24;7.47;;;4.43;;
77864;SDS011;67061;48.524;9.040;2024-02-26T00:19:51;9.48;;;4.70;;
77864;SDS011;67061;48.524;9.040;2024-02-26T00:22:18;7.70;;;4.20;;
77864;SDS011;67061;48.524;9.040;2024-02-26T00:24:45;8.00;;;4.18;;
77864;SDS011;67061;48.524;9.040;2024-02-26T00:27:12;7.10;;;4.38;;
77864;SDS011;67061;48.524;9.040;2024-02-26T00:29:39;8.07;;;4.35;;
77864;SDS011;67061;48.524;9.040;2024-02-26T00:32:06;8.43;;;4.00;;
77864;SDS011;67061;48.524;9.040;2024-02-26T00:34:34;7.72;;;4.45;;
77864;SDS011;67061;48.524;9.040;2024-02-26T00:37:01;8.52;;;4.63;;
77864;SDS011;67061;48.524;9.040;2024-02-26T00:39:28;6.63;;;3.90;;
77864;SDS011;67061;48.524;9.040;2024-02-26T00:41:55;6.25;;;3.67;;
77864;SDS011;67061;48.524;9.040;2024-02-26T00:44:22;6.85;;;3.92;;
77864;SDS011;67061;48.524;9.040;2024-02-26T00:46:49;6.93;;;3.92;;
77864;SDS011;67061;48.524;9.040;2024-02-26T00:49:15;8.32;;;3.55;;
77864;SDS011;67061;48.524;9.040;2024-02-26T00:51:44;7.75;;;3.42;;
77864;SDS011;67061;48.524;9.040;2024-02-26T00:54:11;5.30;;;3.63;;
77864;SDS011;67061;48.524;9.040;2024-02-26T00:56:38;6.03;;;3.45;;
77864;SDS011;67061;48.524;9.040;2024-02-26T00:59:04;5.68;;;3.05;;
77864;SDS011;67061;48.524;9.040;2024-02-26T01:01:31;5.78;;;3.45;;
77864;SDS011;67061;48.524;9.040;2024-02-26T01:03:58;5.57;;;3.30;;
77864;SDS011;67061;48.524;9.040;2024-02-26T01:06:25;6.85;;;3.67;;
77864;SDS011;67061;48.524;9.040;2024-02-26T01:08:53;6.57;;;3.47;;
77864;SDS011;67061;48.524;9.040;2024-02-26T01:11:20;5.80;;;3.30;;
77864;SDS011;67061;48.524;9.040;2024-02-26T01:13:47;6.13;;;3.13;;
77864;SDS011;67061;48.524;9.040;2024-02-26T01:16:18;7.78;;;3.80;;
77864;SDS011;67061;48.524;9.040;2024-02-26T01:18:45;5.95;;;2.88;;
77864;SDS011;67061;48.524;9.040;2024-02-26T01:21:12;6.75;;;3.72;;
77864;SDS011;67061;48.524;9.040;2024-02-26T01:23:39;6.57;;;3.60;;
77864;SDS011;67061;48.524;9.040;2024-02-26T01:26:09;6.43;;;3.58;;
77864;SDS011;67061;48.524;9.040;2024-02-26T01:28:35;6.03;;;3.97;;
77864;SDS011;67061;48.524;9.040;2024-02-26T01:31:02;6.72;;;4.30;;
77864;SDS011;67061;48.524;9.040;2024-02-26T01:33:31;8.93;;;4.60;;
77864;SDS011;67061;48.524;9.040;2024-02-26T01:35:58;7.63;;;4.45;;
77864;SDS011;67061;48.524;9.040;2024-02-26T01:38:25;6.93;;;4.32;;
77864;SDS011;67061;48.524;9.040;2024-02-26T01:40:53;7.63;;;4.13;;
77864;SDS011;67061;48.524;9.040;2024-02-26T01:43:21;9.15;;;5.30;;
77864;SDS011;67061;48.524;9.040;2024-02-26T01:45:48;7.00;;;4.63;;
77864;SDS011;67061;48.524;9.040;2024-02-26T01:48:15;7.20;;;4.20;;
77864;SDS011;67061;48.524;9.040;2024-02-26T01:50:42;4.53;;;2.42;;
77864;SDS011;67061;48.524;9.040;2024-02-26T01:53:09;6.03;;;3.78;;
77864;SDS011;67061;48.524;9.040;2024-02-26T01:55:36;5.10;;;3.00;;
77864;SDS011;67061;48.524;9.040;2024-02-26T01:58:03;5.60;;;2.47;;
77864;SDS011;67061;48.524;9.040;2024-02-26T02:00:33;5.50;;;2.70;;
77864;SDS011;67061;48.524;9.040;2024-02-26T02:03:00;4.65;;;2.58;;
77864;SDS011;67061;48.524;9.040;2024-02-26T02:05:28;4.78;;;2.47;;
77864;SDS011;67061;48.524;9.040;2024-02-26T02:07:56;4.40;;;2.55;;
77864;SDS011;67061;48.524;9.040;2024-02-26T02:10:23;4.38;;;2.42;;
77864;SDS011;67061;48.524;9.040;2024-02-26T02:12:51;5.75;;;3.05;;
77864;SDS011;67061;48.524;9.040;2024-02-26T02:15:18;5.57;;;2.42;;
77864;SDS011;67061;48.524;9.040;2024-02-26T02:17:46;4.68;;;2.40;;
77864;SDS011;67061;48.524;9.040;2024-02-26T02:20:15;4.80;;;2.63;;
77864;SDS011;67061;48.524;9.040;2024-02-26T02:22:44;4.82;;;2.55;;
77864;SDS011;67061;48.524;9.040;2024-02-26T02:25:12;4.93;;;2.50;;
77864;SDS011;67061;48.524;9.040;2024-02-26T02:27:39;5.35;;;2.60;;
77864;SDS011;67061;48.524;9.040;2024-02-26T02:30:06;4.30;;;2.70;;
77864;SDS011;67061;48.524;9.040;2024-02-26T02:32:35;4.85;;;2.42;;
77864;SDS011;67061;48.524;9.040;2024-02-26T02:35:03;5.47;;;2.50;;
77864;SDS011;67061;48.524;9.040;2024-02-26T02:37:30;3.97;;;2.38;;
77864;SDS011;67061;48.524;9.040;2024-02-26T02:39:59;4.95;;;2.50;;
77864;SDS011;67061;48.524;9.040;2024-02-26T02:42:26;4.07;;;2.45;;
77864;SDS011;67061;48.524;9.040;2024-02-26T02:44:52;5.03;;;2.40;;
77864;SDS011;67061;48.524;9.040;2024-02-26T02:47:19;5.22;;;1.98;;
77864;SDS011;67061;48.524;9.040;2024-02-26T02:49:46;4.18;;;2.15;;
77864;SDS011;67061;48.524;9.040;2024-02-26T02:52:13;3.70;;;2.25;;
77864;SDS011;67061;48.524;9.040;2024-02-26T02:54:40;4.10;;;2.05;;
77864;SDS011;67061;48.524;9.040;2024-02-26T02:57:09;3.72;;;1.75;;
77864;SDS011;67061;48.524;9.040;2024-02-26T02:59:36;4.53;;;1.98;;
77864;SDS011;67061;48.524;9.040;2024-02-26T03:02:04;4.22;;;2.20;;
77864;SDS011;67061;48.524;9.040;2024-02-26T03:04:31;5.03;;;2.13;;
77864;SDS011;67061;48.524;9.040;2024-02-26T03:06:58;4.13;;;2.45;;
77864;SDS011;67061;48.524;9.040;2024-02-26T03:09:25;4.53;;;2.10;;
77864;SDS011;67061;48.524;9.040;2024-02-26T03:11:52;5.13;;;2.03;;
77864;SDS011;67061;48.524;9.040;2024-02-26T03:14:20;3.70;;;2.15;;
77864;SDS011;67061;48.524;9.040;2024-02-26T03:16:47;4.78;;;2.03;;
77864;SDS011;67061;48.524;9.040;2024-02-26T03:19:14;5.95;;;2.00;;
77864;SDS011;67061;48.524;9.040;2024-02-26T03:21:42;4.15;;;2.42;;
77864;SDS011;67061;48.524;9.040;2024-02-26T03:24:09;4.70;;;2.25;;
77864;SDS011;67061;48.524;9.040;2024-02-26T03:26:37;4.85;;;2.38;;
77864;SDS011;67061;48.524;9.040;2024-02-26T03:29:04;4.18;;;2.28;;
77864;SDS011;67061;48.524;9.040;2024-02-26T03:31:32;5.90;;;2.40;;
77864;SDS011;67061;48.524;9.040;2024-02-26T03:33:59;4.13;;;2.60;;
77864;SDS011;67061;48.524;9.040;2024-02-26T03:36:26;6.00;;;2.40;;
77864;SDS011;67061;48.524;9.040;2024-02-26T03:38:53;4.65;;;1.98;;
77864;SDS011;67061;48.524;9.040;2024-02-26T03:41:20;4.35;;;2.00;;
77864;SDS011;67061;48.524;9.040;2024-02-26T03:43:47;4.65;;;2.10;;
77864;SDS011;67061;48.524;9.040;2024-02-26T03:46:14;4.00;;;2.00;;
77864;SDS011;67061;48.524;9.040;2024-02-26T03:48:42;3.78;;;1.90;;
77864;SDS011;67061;48.524;9.040;2024-02-26T03:51:09;3.70;;;1.98;;
77864;SDS011;67061;48.524;9.040;2024-02-26T03:53:36;4.15;;;1.85;;
77864;SDS011;67061;48.524;9.040;2024-02-26T03:56:03;3.95;;;2.10;;
77864;SDS011;67061;48.524;9.040;2024-02-26T03:58:31;3.55;;;2.10;;
77864;SDS011;67061;48.524;9.040;2024-02-26T04:00:58;3.67;;;1.95;;
77864;SDS011;67061;48.524;9.040;2024-02-26T04:03:25;5.93;;;2.80;;
77864;SDS011;67061;48.524;9.040;2024-02-26T04:05:53;4.57;;;2.47;;
77864;SDS011;67061;48.524;9.040;2024-02-26T04:08:20;5.80;;;2.17;;
77864;SDS011;67061;48.524;9.040;2024-02-26T04:10:47;4.93;;;2.55;;
77864;SDS011;67061;48.524;9.040;2024-02-26T04:13:14;5.53;;;2.50;;
77864;SDS011;67061;48.524;9.040;2024-02-26T04:15:41;3.90;;;2.30;;
77864;SDS011;67061;48.524;9.040;2024-02-26T04:18:08;5.05;;;2.35;;
77864;SDS011;67061;48.524;9.040;2024-02-26T04:20:35;4.25;;;2.42;;
77864;SDS011;67061;48.524;9.040;2024-02-26T04:23:03;3.13;;;1.95;;
77864;SDS011;67061;48.524;9.040;2024-02-26T04:25:30;10.05;;;4.80;;
77864;SDS011;67061;48.524;9.040;2024-02-26T04:27:57;5.03;;;3.08;;
77864;SDS011;67061;48.524;9.040;2024-02-26T04:30:24;5.00;;;2.53;;
77864;SDS011;67061;48.524;9.040;2024-02-26T04:32:51;4.18;;;2.58;;
77864;SDS011;67061;48.524;9.040;2024-02-26T04:35:18;3.70;;;2.15;;
77864;SDS011;67061;48.524;9.040;2024-02-26T04:37:45;3.70;;;2.20;;
77864;SDS011;67061;48.524;9.040;2024-02-26T04:40:13;3.70;;;2.00;;
77864;SDS011;67061;48.524;9.040;2024-02-26T04:42:40;4.25;;;2.03;;
77864;SDS011;67061;48.524;9.040;2024-02-26T04:45:08;4.45;;;2.20;;
77864;SDS011;67061;48.524;9.040;2024-02-26T04:47:35;3.95;;;2.25;;
77864;SDS011;67061;48.524;9.040;2024-02-26T04:50:02;4.05;;;2.35;;
77864;SDS011;67061;48.524;9.040;2024-02-26T04:52:29;4.45;;;2.33;;
77864;SDS011;67061;48.524;9.040;2024-02-26T04:54:56;4.32;;;2.40;;
77864;SDS011;67061;48.524;9.040;2024-02-26T04:57:26;3.22;;;2.05;;
77864;SDS011;67061;48.524;9.040;2024-02-26T04:59:53;4.22;;;2.15;;
77864;SDS011;67061;48.524;9.040;2024-02-26T05:02:20;4.22;;;2.40;;
77864;SDS011;67061;48.524;9.040;2024-02-26T05:04:47;4.15;;;2.67;;
77864;SDS011;67061;48.524;9.040;2024-02-26T05:07:14;4.35;;;2.10;;
77864;SDS011;67061;48.524;9.040;2024-02-26T05:09:42;3.58;;;2.15;;
77864;SDS011;67061;48.524;9.040;2024-02-26T05:12:09;4.20;;;2.28;;
77864;SDS011;67061;48.524;9.040;2024-02-26T05:14:38;4.55;;;2.30;;
77864;SDS011;67061;48.524;9.040;2024-02-26T05:17:05;4.50;;;2.65;;
77864;SDS011;67061;48.524;9.040;2024-02-26T05:19:32;3.88;;;1.67;;
77864;SDS011;67061;48.524;9.040;2024-02-26T05:21:59;3.78;;;2.35;;
77864;SDS011;67061;48.524;9.040;2024-02-26T05:24:26;4.32;;;2.05;;
77864;SDS011;67061;48.524;9.040;2024-02-26T05:26:53;2.92;;;1.60;;
77864;SDS011;67061;48.524;9.040;2024-02-26T05:29:20;2.92;;;1.60;;
77864;SDS011;67061;48.524;9.040;2024-02-26T05:31:49;4.28;;;1.75;;
77864;SDS011;67061;48.524;9.040;2024-02-26T05:34:15;4.60;;;2.08;;
77864;SDS011;67061;48.524;9.040;2024-02-26T05:36:43;4.53;;;1.98;;
77864;SDS011;67061;48.524;9.040;2024-02-26T05:39:10;3.08;;;1.67;;
77864;SDS011;67061;48.524;9.040;2024-02-26T05:41:37;2.97;;;1.60;;
77864;SDS011;67061;48.524;9.040;2024-02-26T05:44:04;5.05;;;2.22;;
77864;SDS011;67061;48.524;9.040;2024-02-26T05:46:31;4.30;;;2.30;;
77864;SDS011;67061;48.524;9.040;2024-02-26T05:48:59;4.53;;;2.65;;
77864;SDS011;67061;48.524;9.040;2024-02-26T05:51:26;4.90;;;2.63;;
77864;SDS011;67061;48.524;9.040;2024-02-26T05:53:53;4.60;;;2.70;;
77864;SDS011;67061;48.524;9.040;2024-02-26T05:56:20;4.60;;;2.72;;
77864;SDS011;67061;48.524;9.040;2024-02-26T05:58:48;4.63;;;2.20;;
77864;SDS011;67061;48.524;9.040;2024-02-26T06:01:15;4.65;;;2.17;;
77864;SDS011;67061;48.524;9.040;2024-02-26T06:03:42;4.32;;;2.25;;
77864;SDS011;67061;48.524;9.040;2024-02-26T06:06:11;3.63;;;2.00;;
77864;SDS011;67061;48.524;9.040;2024-02-26T06:08:38;4.32;;;2.17;;
77864;SDS011;67061;48.524;9.040;2024-02-26T06:11:05;5.20;;;2.83;;
77864;SDS011;67061;48.524;9.040;2024-02-26T06:13:33;4.38;;;2.17;;
77864;SDS011;67061;48.524;9.040;2024-02-26T06:16:00;4.47;;;1.92;;
77864;SDS011;67061;48.524;9.040;2024-02-26T06:18:27;3.17;;;1.83;;
77864;SDS011;67061;48.524;9.040;2024-02-26T06:20:54;4.63;;;1.95;;
77864;SDS011;67061;48.524;9.040;2024-02-26T06:23:22;3.75;;;1.98;;
77864;SDS011;67061;48.524;9.040;2024-02-26T06:25:49;5.53;;;1.77;;
77864;SDS011;67061;48.524;9.040;2024-02-26T06:28:16;3.78;;;1.40;;
77864;SDS011;67061;48.524;9.040;2024-02-26T06:30:43;3.55;;;2.10;;
77864;SDS011;67061;48.524;9.040;2024-02-26T06:33:11;3.55;;;2.10;;
77864;SDS011;67061;48.524;9.040;2024-02-26T06:35:39;3.75;;;1.77;;
77864;SDS011;67061;48.524;9.040;2024-02-26T06:38:06;4.75;;;2.50;;
77864;SDS011;67061;48.524;9.040;2024-02-26T06:40:36;4.68;;;1.83;;
77864;SDS011;67061;48.524;9.040;2024-02-26T06:43:03;5.38;;;2.40;;
77864;SDS011;67061;48.524;9.040;2024-02-26T06:45:30;4.53;;;2.42;;
77864;SDS011;67061;48.524;9.040;2024-02-26T06:47:57;4.43;;;2.30;;
77864;SDS011;67061;48.524;9.040;2024-02-26T06:50:24;5.63;;;2.60;;
77864;SDS011;67061;48.524;9.040;2024-02-26T06:52:51;4.80;;;2.65;;
77864;SDS011;67061;48.524;9.040;2024-02-26T06:55:18;4.15;;;2.40;;
77864;SDS011;67061;48.524;9.040;2024-02-26T06:57:46;4.78;;;2.50;;
77864;SDS011;67061;48.524;9.040;2024-02-26T07:00:14;5.80;;;2.95;;
77864;SDS011;67061;48.524;9.040;2024-02-26T07:02:41;8.88;;;5.90;;
77864;SDS011;67061;48.524;9.040;2024-02-26T07:05:09;9.77;;;7.18;;
77864;SDS011;67061;48.524;9.040;2024-02-26T07:07:36;10.45;;;8.00;;
77864;SDS011;67061;48.524;9.040;2024-02-26T07:10:03;12.93;;;5.38;;
77864;SDS011;67061;48.524;9.040;2024-02-26T07:12:30;10.80;;;6.90;;
77864;SDS011;67061;48.524;9.040;2024-02-26T07:14:59;9.38;;;5.60;;
77864;SDS011;67061;48.524;9.040;2024-02-26T07:17:27;5.75;;;3.63;;
77864;SDS011;67061;48.524;9.040;2024-02-26T07:19:54;5.80;;;2.47;;
77864;SDS011;67061;48.524;9.040;2024-02-26T07:22:21;5.22;;;2.55;;
77864;SDS011;67061;48.524;9.040;2024-02-26T07:24:49;4.85;;;2.80;;
77864;SDS011;67061;48.524;9.040;2024-02-26T07:27:16;4.30;;;2.70;;
77864;SDS011;67061;48.524;9.040;2024-02-26T07:29:44;3.92;;;2.20;;
77864;SDS011;67061;48.524;9.040;2024-02-26T07:32:13;4.78;;;2.53;;
77864;SDS011;67061;48.524;9.040;2024-02-26T07:34:40;7.70;;;5.00;;
77864;SDS011;67061;48.524;9.040;2024-02-26T07:37:09;6.30;;;4.38;;
77864;SDS011;67061;48.524;9.040;2024-02-26T07:39:36;7.70;;;4.18;;
77864;SDS011;67061;48.524;9.040;2024-02-26T07:42:04;7.75;;;4.25;;
77864;SDS011;67061;48.524;9.040;2024-02-26T07:44:31;6.82;;;4.32;;
77864;SDS011;67061;48.524;9.040;2024-02-26T07:46:58;6.18;;;3.60;;
77864;SDS011;67061;48.524;9.040;2024-02-26T07:49:27;6.53;;;3.60;;
77864;SDS011;67061;48.524;9.040;2024-02-26T07:51:54;6.28;;;4.28;;
77864;SDS011;67061;48.524;9.040;2024-02-26T07:54:23;6.85;;;4.13;;
77864;SDS011;67061;48.524;9.040;2024-02-26T07:56:49;6.97;;;4.35;;
77864;SDS011;67061;48.524;9.040;2024-02-26T07:59:16;7.05;;;4.32;;
77864;SDS011;67061;48.524;9.040;2024-02-26T08:01:43;6.38;;;3.75;;
77864;SDS011;67061;48.524;9.040;2024-02-26T08:04:11;4.72;;;2.97;;
77864;SDS011;67061;48.524;9.040;2024-02-26T08:06:39;4.72;;;2.78;;
77864;SDS011;67061;48.524;9.040;2024-02-26T08:09:06;5.25;;;3.13;;
77864;SDS011;67061;48.524;9.040;2024-02-26T08:11:33;5.32;;;3.40;;
77864;SDS011;67061;48.524;9.040;2024-02-26T08:14:00;4.88;;;3.38;;
77864;SDS011;67061;48.524;9.040;2024-02-26T08:16:26;6.60;;;3.63;;
77864;SDS011;67061;48.524;9.040;2024-02-26T08:18:53;5.38;;;3.25;;
77864;SDS011;67061;48.524;9.040;2024-02-26T08:21:21;5.72;;;3.40;;
77864;SDS011;67061;48.524;9.040;2024-02-26T08:23:50;5.85;;;3.35;;
77864;SDS011;67061;48.524;9.040;2024-02-26T08:26:16;6.00;;;2.55;;
77864;SDS011;67061;48.524;9.040;2024-02-26T08:28:46;6.07;;;2.97;;
77864;SDS011;67061;48.524;9.040;2024-02-26T08:31:14;5.50;;;2.05;;
77864;SDS011;67061;48.524;9.040;2024-02-26T08:33:41;3.83;;;1.55;;
77864;SDS011;67061;48.524;9.040;2024-02-26T08:36:08;4.22;;;2.10;;
77864;SDS011;67061;48.524;9.040;2024-02-26T08:38:35;4.07;;;2.08;;
77864;SDS011;67061;48.524;9.040;2024-02-26T08:41:04;4.93;;;2.08;;
77864;SDS011;67061;48.524;9.040;2024-02-26T08:43:31;4.18;;;1.98;;
77864;SDS011;67061;48.524;9.040;2024-02-26T08:45:58;4.57;;;3.08;;
77864;SDS011;67061;48.524;9.040;2024-02-26T08:48:24;5.80;;;2.33;;
77864;SDS011;67061;48.524;9.040;2024-02-26T08:50:51;3.45;;;1.77;;
77864;SDS011;67061;48.524;9.040;2024-02-26T08:53:18;4.72;;;1.88;;
77864;SDS011;67061;48.524;9.040;2024-02-26T08:55:45;3.88;;;1.80;;
77864;SDS011;67061;48.524;9.040;2024-02-26T08:58:14;4.45;;;2.17;;
77864;SDS011;67061;48.524;9.040;2024-02-26T09:00:40;4.40;;;2.08;;
77864;SDS011;67061;48.524;9.040;2024-02-26T09:03:07;3.42;;;1.73;;
77864;SDS011;67061;48.524;9.040;2024-02-26T09:05:34;4.95;;;2.70;;
77864;SDS011;67061;48.524;9.040;2024-02-26T09:08:01;4.03;;;1.90;;
77864;SDS011;67061;48.524;9.040;2024-02-26T09:10:28;3.15;;;2.03;;
77864;SDS011;67061;48.524;9.040;2024-02-26T09:12:55;3.85;;;1.60;;
77864;SDS011;67061;48.524;9.040;2024-02-26T09:15:23;3.90;;;1.98;;
77864;SDS011;67061;48.524;9.040;2024-02-26T09:17:50;4.88;;;1.92;;
77864;SDS011;67061;48.524;9.040;2024-02-26T09:20:17;3.40;;;1.70;;
77864;SDS011;67061;48.524;9.040;2024-02-26T09:22:45;3.65;;;1.75;;
77864;SDS011;67061;48.524;9.040;2024-02-26T09:25:12;4.80;;;1.70;;
77864;SDS011;67061;48.524;9.040;2024-02-26T09:27:40;3.72;;;2.00;;
77864;SDS011;67061;48.524;9.040;2024-02-26T09:30:08;3.30;;;2.00;;
77864;SDS011;67061;48.524;9.040;2024-02-26T09:32:37;6.05;;;2.08;;
77864;SDS011;67061;48.524;9.040;2024-02-26T09:35:05;4.18;;;2.17;;
77864;SDS011;67061;48.524;9.040;2024-02-26T09:37:32;6.72;;;2.80;;
77864;SDS011;67061;48.524;9.040;2024-02-26T09:40:01;6.28;;;2.13;;
77864;SDS011;67061;48.524;9.040;2024-02-26T09:42:29;7.57;;;2.45;;
77864;SDS011;67061;48.524;9.040;2024-02-26T09:44:58;5.30;;;1.92;;
77864;SDS011;67061;48.524;9.040;2024-02-26T09:47:28;4.72;;;2.00;;
77864;SDS011;67061;48.524;9.040;2024-02-26T09:49:59;5.05;;;2.22;;
77864;SDS011;67061;48.524;9.040;2024-02-26T09:52:27;6.28;;;2.00;;
77864;SDS011;67061;48.524;9.040;2024-02-26T09:54:57;3.05;;;1.60;;
77864;SDS011;67061;48.524;9.040;2024-02-26T09:57:24;3.63;;;1.50;;
77864;SDS011;67061;48.524;9.040;2024-02-26T09:59:53;3.90;;;1.52;;
77864;SDS011;67061;48.524;9.040;2024-02-26T10:02:25;3.72;;;1.63;;
77864;SDS011;67061;48.524;9.040;2024-02-26T10:04:52;5.63;;;1.63;;
77864;SDS011;67061;48.524;9.040;2024-02-26T10:07:24;4.70;;;2.13;;
77864;SDS011;67061;48.524;9.040;2024-02-26T10:09:51;3.78;;;1.60;;
77864;SDS011;67061;48.524;9.040;2024-02-26T10:12:18;4.65;;;1.35;;
77864;SDS011;67061;48.524;9.040;2024-02-26T10:14:46;4.35;;;0.90;;
77864;SDS011;67061;48.524;9.040;2024-02-26T10:17:13;2.30;;;0.65;;
77864;SDS011;67061;48.524;9.040;2024-02-26T10:19:40;2.80;;;1.00;;
77864;SDS011;67061;48.524;9.040;2024-02-26T10:22:07;3.15;;;0.98;;
77864;SDS011;67061;48.524;9.040;2024-02-26T10:24:35;4.47;;;1.15;;
77864;SDS011;67061;48.524;9.040;2024-02-26T10:27:03;2.47;;;0.80;;
77864;SDS011;67061;48.524;9.040;2024-02-26T10:29:31;2.50;;;0.98;;
77864;SDS011;67061;48.524;9.040;2024-02-26T10:31:58;2.83;;;1.10;;
77864;SDS011;67061;48.524;9.040;2024-02-26T10:34:25;3.33;;;1.80;;
77864;SDS011;67061;48.524;9.040;2024-02-26T10:36:54;2.97;;;1.23;;
77864;SDS011;67061;48.524;9.040;2024-02-26T10:39:21;5.15;;;1.40;;
77864;SDS011;67061;48.524;9.040;2024-02-26T10:41:49;2.70;;;1.40;;
77864;SDS011;67061;48.524;9.040;2024-02-26T10:44:16;2.63;;;1.30;;
77864;SDS011;67061;48.524;9.040;2024-02-26T10:46:44;2.90;;;1.23;;
77864;SDS011;67061;48.524;9.040;2024-02-26T10:49:14;2.83;;;1.17;;
77864;SDS011;67061;48.524;9.040;2024-02-26T10:51:44;2.85;;;1.50;;
77864;SDS011;67061;48.524;9.040;2024-02-26T10:54:12;2.90;;;1.40;;
77864;SDS011;67061;48.524;9.040;2024-02-26T10:56:42;3.17;;;1.60;;
77864;SDS011;67061;48.524;9.040;2024-02-26T10:59:13;3.00;;;1.50;;
77864;SDS011;67061;48.524;9.040;2024-02-26T11:01:45;3.15;;;1.50;;
77864;SDS011;67061;48.524;9.040;2024-02-26T11:04:14;3.03;;;1.50;;
77864;SDS011;67061;48.524;9.040;2024-02-26T11:06:42;3.78;;;1.48;;
77864;SDS011;67061;48.524;9.040;2024-02-26T11:09:10;4.72;;;1.40;;
77864;SDS011;67061;48.524;9.040;2024-02-26T11:11:39;2.63;;;1.20;;
77864;SDS011;67061;48.524;9.040;2024-02-26T11:14:08;2.75;;;1.38;;
77864;SDS011;67061;48.524;9.040;2024-02-26T11:16:37;2.38;;;1.00;;
77864;SDS011;67061;48.524;9.040;2024-02-26T11:19:06;2.53;;;1.45;;
77864;SDS011;67061;48.524;9.040;2024-02-26T11:21:35;3.13;;;1.02;;
77864;SDS011;67061;48.524;9.040;2024-02-26T11:24:06;3.30;;;1.08;;
77864;SDS011;67061;48.524;9.040;2024-02-26T11:26:36;3.58;;;1.10;;
77864;SDS011;67061;48.524;9.040;2024-02-26T11:29:10;2.50;;;1.23;;
77864;SDS011;67061;48.524;9.040;2024-02-26T11:31:41;3.35;;;0.88;;
77864;SDS011;67061;48.524;9.040;2024-02-26T11:34:09;2.30;;;1.10;;
77864;SDS011;67061;48.524;9.040;2024-02-26T11:36:36;2.65;;;1.33;;
77864;SDS011;67061;48.524;9.040;2024-02-26T11:39:04;4.05;;;1.30;;
77864;SDS011;67061;48.524;9.040;2024-02-26T11:41:31;4.40;;;1.05;;
77864;SDS011;67061;48.524;9.040;2024-02-26T11:43:59;2.85;;;1.98;;
77864;SDS011;67061;48.524;9.040;2024-02-26T11:46:27;2.60;;;0.80;;
77864;SDS011;67061;48.524;9.040;2024-02-26T11:48:57;5.68;;;0.95;;
77864;SDS011;67061;48.524;9.040;2024-02-26T11:51:25;3.42;;;1.30;;
77864;SDS011;67061;48.524;9.040;2024-02-26T11:53:53;4.88;;;1.60;;
77864;SDS011;67061;48.524;9.040;2024-02-26T11:56:24;2.85;;;0.85;;
77864;SDS011;67061;48.524;9.040;2024-02-26T11:58:56;4.93;;;1.10;;
77864;SDS011;67061;48.524;9.040;2024-02-26T12:01:40;3.97;;;1.48;;
77864;SDS011;67061;48.524;9.040;2024-02-26T12:04:16;2.47;;;1.08;;
77864;SDS011;67061;48.524;9.040;2024-02-26T12:06:45;5.40;;;1.00;;
77864;SDS011;67061;48.524;9.040;2024-02-26T12:09:35;4.57;;;1.10;;
77864;SDS011;67061;48.524;9.040;2024-02-26T12:12:05;2.80;;;1.25;;
77864;SDS011;67061;48.524;9.040;2024-02-26T12:14:34;3.08;;;1.55;;
77864;SDS011;67061;48.524;9.040;2024-02-26T12:17:01;2.45;;;1.20;;
77864;SDS011;67061;48.524;9.040;2024-02-26T12:19:33;2.85;;;1.13;;
77864;SDS011;67061;48.524;9.040;2024-02-26T12:22:01;2.30;;;1.10;;
77864;SDS011;67061;48.524;9.040;2024-02-26T12:24:28;3.17;;;1.45;;
77864;SDS011;67061;48.524;9.040;2024-02-26T12:26:55;3.10;;;1.35;;
77864;SDS011;67061;48.524;9.040;2024-02-26T12:29:23;2.70;;;1.20;;
77864;SDS011;67061;48.524;9.040;2024-02-26T12:31:50;4.65;;;1.10;;
77864;SDS011;67061;48.524;9.040;2024-02-26T12:34:17;3.60;;;1.20;;
77864;SDS011;67061;48.524;9.040;2024-02-26T12:36:46;2.13;;;0.93;;
77864;SDS011;67061;48.524;9.040;2024-02-26T12:39:13;2.10;;;0.93;;
77864;SDS011;67061;48.524;9.040;2024-02-26T12:41:40;2.10;;;1.02;;
77864;SDS011;67061;48.524;9.040;2024-02-26T12:44:11;2.95;;;1.17;;
77864;SDS011;67061;48.524;9.040;2024-02-26T12:46:38;2.72;;;1.30;;
77864;SDS011;67061;48.524;9.040;2024-02-26T12:49:05;3.55;;;0.70;;
77864;SDS011;67061;48.524;9.040;2024-02-26T12:51:33;3.45;;;0.77;;
77864;SDS011;67061;48.524;9.040;2024-02-26T12:54:01;1.83;;;0.80;;
77864;SDS011;67061;48.524;9.040;2024-02-26T12:56:29;1.98;;;0.60;;
77864;SDS011;67061;48.524;9.040;2024-02-26T12:58:56;1.70;;;0.70;;
77864;SDS011;67061;48.524;9.040;2024-02-26T13:01:25;3.88;;;2.53;;
77864;SDS011;67061;48.524;9.040;2024-02-26T13:03:52;2.83;;;0.90;;
77864;SDS011;67061;48.524;9.040;2024-02-26T13:06:19;2.50;;;0.55;;
77864;SDS011;67061;48.524;9.040;2024-02-26T13:08:47;1.92;;;0.80;;
77864;SDS011;67061;48.524;9.040;2024-02-26T13:11:16;1.00;;;0.20;;
77864;SDS011;67061;48.524;9.040;2024-02-26T13:13:47;2.03;;;0.40;;
77864;SDS011;67061;48.524;9.040;2024-02-26T13:16:15;2.55;;;0.50;;
77864;SDS011;67061;48.524;9.040;2024-02-26T13:18:42;1.98;;;0.52;;
77864;SDS011;67061;48.524;9.040;2024-02-26T13:21:10;1.55;;;0.30;;
77864;SDS011;67061;48.524;9.040;2024-02-26T13:23:38;1.35;;;0.47;;
77864;SDS011;67061;48.524;9.040;2024-02-26T13:26:06;1.27;;;0.30;;
77864;SDS011;67061;48.524;9.040;2024-02-26T13:28:35;1.85;;;0.35;;
77864;SDS011;67061;48.524;9.040;2024-02-26T13:31:02;1.33;;;0.10;;
77864;SDS011;67061;48.524;9.040;2024-02-26T13:33:30;2.08;;;0.20;;
77864;SDS011;67061;48.524;9.040;2024-02-26T13:35:58;1.60;;;0.30;;
77864;SDS011;67061;48.524;9.040;2024-02-26T13:38:26;3.15;;;0.70;;
77864;SDS011;67061;48.524;9.040;2024-02-26T13:40:53;1.58;;;0.60;;
77864;SDS011;67061;48.524;9.040;2024-02-26T13:43:21;1.58;;;0.30;;
77864;SDS011;67061;48.524;9.040;2024-02-26T13:45:49;1.92;;;0.70;;
77864;SDS011;67061;48.524;9.040;2024-02-26T13:48:16;1.80;;;0.52;;
77864;SDS011;67061;48.524;9.040;2024-02-26T13:50:43;1.60;;;0.52;;
77864;SDS011;67061;48.524;9.040;2024-02-26T13:53:10;1.20;;;0.30;;
77864;SDS011;67061;48.524;9.040;2024-02-26T13:55:39;2.45;;;0.52;;
77864;SDS011;67061;48.524;9.040;2024-02-26T13:58:07;2.78;;;0.80;;
77864;SDS011;67061;48.524;9.040;2024-02-26T14:00:37;5.60;;;2.20;;
77864;SDS011;67061;48.524;9.040;2024-02-26T14:03:05;3.30;;;1.13;;
77864;SDS011;67061;48.524;9.040;2024-02-26T14:05:32;2.47;;;1.13;;
77864;SDS011;67061;48.524;9.040;2024-02-26T14:07:59;2.20;;;0.47;;
77864;SDS011;67061;48.524;9.040;2024-02-26T14:10:26;0.95;;;0.20;;
77864;SDS011;67061;48.524;9.040;2024-02-26T14:12:53;1.30;;;0.30;;
77864;SDS011;67061;48.524;9.040;2024-02-26T14:15:20;1.90;;;0.63;;
77864;SDS011;67061;48.524;9.040;2024-02-26T14:17:47;0.82;;;0.15;;
77864;SDS011;67061;48.524;9.040;2024-02-26T14:20:21;0.90;;;0.25;;
77864;SDS011;67061;48.524;9.040;2024-02-26T14:22:48;1.58;;;0.40;;
77864;SDS011;67061;48.524;9.040;2024-02-26T14:25:15;1.55;;;0.50;;
77864;SDS011;67061;48.524;9.040;2024-02-26T14:27:42;0.85;;;0.20;;
77864;SDS011;67061;48.524;9.040;2024-02-26T14:30:09;2.10;;;0.38;;
77864;SDS011;67061;48.524;9.040;2024-02-26T14:32:37;2.78;;;0.60;;
77864;SDS011;67061;48.524;9.040;2024-02-26T14:35:05;1.15;;;0.28;;
77864;SDS011;67061;48.524;9.040;2024-02-26T14:37:34;1.95;;;0.40;;
77864;SDS011;67061;48.524;9.040;2024-02-26T14:40:01;1.23;;;0.30;;
77864;SDS011;67061;48.524;9.040;2024-02-26T14:42:28;1.50;;;0.60;;
77864;SDS011;67061;48.524;9.040;2024-02-26T14:44:56;1.13;;;0.20;;
77864;SDS011;67061;48.524;9.040;2024-02-26T14:47:23;1.00;;;0.28;;
77864;SDS011;67061;48.524;9.040;2024-02-26T14:49:49;1.77;;;0.30;;